Time;durP1;ratioP1;P1;durP2;ratioP2;P2;SDS_P1;SDS_P2;PMS_P1;PMS_P2;Temp;Humidity;BMP_temperature;BMP_pressure;BME280_temperature;BME280_humidity;BME280_pressure;Samples;Min_cycle;Max_cycle;Signal;HPM_P1;HPM_P2
2022/12/29 00:00:17;;;;;;;0.40;0.40;;;9.90;99.90;;;;;;5065216;28;20464;-75
2022/12/29 00:02:47;;;;;;;0.50;0.50;;;10.00;99.90;;;;;;5060326;28;20497;-76
2022/12/29 00:05:14;;;;;;;0.25;0.25;;;10.10;99.90;;;;;;5065247;28;20430;-75
2022/12/29 00:07:40;;;;;;;0.22;0.22;;;10.10;99.90;;;;;;5070616;28;20756;-75
2022/12/29 00:10:07;;;;;;;2.40;0.30;;;10.20;99.90;;;;;;5048666;28;20432;-74
2022/12/29 00:15:38;;;;;;;0.40;0.40;;;10.20;99.90;;;;;;5065537;28;20459;-76
2022/12/29 00:18:07;;;;;;;0.30;0.30;;;10.20;99.90;;;;;;5070368;28;20970;-76
2022/12/29 00:44:04;;;;;;;0.20;0.20;;;10.00;99.90;;;;;;5022316;28;20429;-75
2022/12/29 00:45:47;;;;;;;0.20;0.20;;;10.00;99.90;;;;;;5068479;28;20433;-75
2022/12/29 00:48:14;;;;;;;0.30;0.30;;;9.90;99.90;;;;;;5060359;28;20431;-75
2022/12/29 00:50:40;;;;;;;1.05;0.50;;;9.90;99.90;;;;;;5064522;28;21032;-76
2022/12/29 00:53:07;;;;;;;0.20;0.20;;;9.90;99.90;;;;;;5036766;28;20455;-75
2022/12/29 00:55:38;;;;;;;0.28;0.28;;;9.90;99.90;;;;;;5072987;28;20427;-76
2022/12/29 00:58:05;;;;;;;0.20;0.20;;;9.90;99.90;;;;;;5066909;28;20486;-75
2022/12/29 01:00:31;;;;;;;0.10;0.10;;;9.90;99.90;;;;;;5054152;28;20985;-76
2022/12/29 01:02:58;;;;;;;0.20;0.20;;;9.90;99.90;;;;;;5060900;28;20439;-76
2022/12/29 01:05:28;;;;;;;0.10;0.10;;;9.90;99.90;;;;;;5056461;28;20477;-76
2022/12/29 01:07:54;;;;;;;0.30;0.30;;;9.90;99.90;;;;;;5070370;28;20435;-76
2022/12/29 01:10:21;;;;;;;0.28;0.28;;;9.90;99.90;;;;;;5071533;28;20459;-76
2022/12/29 01:12:49;;;;;;;0.10;0.10;;;9.90;99.90;;;;;;5066868;28;20937;-75
2022/12/29 01:15:16;;;;;;;0.20;0.20;;;9.80;99.90;;;;;;5065777;28;20423;-76
2022/12/29 01:17:43;;;;;;;0.20;0.10;;;9.80;99.90;;;;;;5069979;28;20510;-76
2022/12/29 01:20:11;;;;;;;0.10;0.10;;;9.80;99.90;;;;;;5070296;28;20918;-77
2022/12/29 01:22:42;;;;;;;0.20;0.20;;;9.80;99.90;;;;;;5049246;28;20522;-76
2022/12/29 01:25:09;;;;;;;0.20;0.20;;;9.70;99.90;;;;;;5059756;28;20798;-76
2022/12/29 01:27:35;;;;;;;0.20;0.20;;;9.70;99.90;;;;;;5066826;28;20435;-75
2022/12/29 01:30:02;;;;;;;0.22;0.22;;;9.70;99.90;;;;;;5068925;28;20433;-75
2022/12/29 01:32:29;;;;;;;0.05;0.05;;;9.70;99.90;;;;;;5067302;28;20423;-76
2022/12/29 01:34:56;;;;;;;0.32;0.30;;;9.60;99.90;;;;;;5061072;28;20537;-76
2022/12/29 01:37:23;;;;;;;0.60;0.50;;;9.60;99.90;;;;;;5056569;28;20432;-75
2022/12/29 01:39:49;;;;;;;0.20;0.20;;;9.70;99.90;;;;;;5057533;28;20437;-76
2022/12/29 01:42:18;;;;;;;0.70;0.30;;;9.60;99.90;;;;;;5067070;28;20779;-76
2022/12/29 01:44:54;;;;;;;0.10;0.10;;;9.70;99.90;;;;;;5072146;28;20825;-76
2022/12/29 01:47:44;;;;;;;0.10;0.10;;;9.70;99.90;;;;;;5054750;28;20437;-75
2022/12/29 01:50:17;;;;;;;0.00;0.00;;;9.70;99.90;;;;;;5040525;28;20528;-76
2022/12/29 01:52:53;;;;;;;0.20;0.20;;;9.70;99.90;;;;;;5062473;28;20506;-75
2022/12/29 01:55:20;;;;;;;1.20;0.20;;;9.80;99.90;;;;;;5064289;28;20424;-76
2022/12/29 01:57:50;;;;;;;0.17;0.17;;;9.80;99.90;;;;;;5062071;28;20503;-75
2022/12/29 02:00:17;;;;;;;0.10;0.10;;;9.80;99.90;;;;;;5059863;28;20435;-75
2022/12/29 02:02:53;;;;;;;0.10;0.10;;;9.90;99.90;;;;;;5062269;28;20427;-76
2022/12/29 02:05:28;;;;;;;0.40;0.28;;;9.90;99.90;;;;;;5062554;28;20433;-75
2022/12/29 02:08:01;;;;;;;0.10;0.10;;;10.00;99.90;;;;;;5062262;28;20497;-76
2022/12/29 02:10:32;;;;;;;0.30;0.30;;;10.00;99.90;;;;;;5066958;28;20917;-75
2022/12/29 02:12:59;;;;;;;0.20;0.20;;;10.10;99.90;;;;;;5065774;28;20427;-75
2022/12/29 02:16:05;;;;;;;0.40;0.20;;;10.10;99.90;;;;;;5070824;28;20465;-75
2022/12/29 02:19:23;;;;;;;3.40;0.43;;;10.10;99.90;;;;;;5061493;28;20423;-76
2022/12/29 02:22:05;;;;;;;0.10;0.10;;;10.10;99.90;;;;;;5053249;28;20444;-76
2022/12/29 02:24:56;;;;;;;0.17;0.17;;;10.10;99.90;;;;;;5065363;28;20427;-76
2022/12/29 02:27:33;;;;;;;0.10;0.10;;;10.10;99.90;;;;;;5057126;28;20433;-76
2022/12/29 02:30:17;;;;;;;0.20;0.20;;;10.10;99.90;;;;;;5067624;28;20470;-75
2022/12/29 02:33:20;;;;;;;0.20;0.20;;;10.10;99.90;;;;;;5066855;28;20431;-76
2022/12/29 02:36:12;;;;;;;0.10;0.10;;;10.10;99.90;;;;;;5054175;28;20438;-76
2022/12/29 02:39:02;;;;;;;0.30;0.30;;;10.00;99.90;;;;;;5060826;28;20523;-76
2022/12/29 02:41:50;;;;;;;0.30;0.30;;;9.90;99.90;;;;;;5061274;28;20514;-74
2022/12/29 02:44:26;;;;;;;0.25;0.25;;;9.80;99.90;;;;;;5070741;28;20509;-76
2022/12/29 02:46:57;;;;;;;0.20;0.20;;;9.80;99.90;;;;;;5063864;28;20440;-76
2022/12/29 02:49:48;;;;;;;0.20;0.20;;;9.80;99.90;;;;;;5055288;28;20441;-75
2022/12/29 02:52:25;;;;;;;0.25;0.25;;;9.90;99.90;;;;;;5028517;28;20440;-76
2022/12/29 02:54:55;;;;;;;0.60;0.20;;;10.00;99.90;;;;;;5052037;28;20532;-76
2022/12/29 02:57:23;;;;;;;2.40;0.55;;;10.00;99.90;;;;;;5055957;28;20436;-76
2022/12/29 02:59:55;;;;;;;0.20;0.20;;;10.00;99.90;;;;;;5070656;28;20439;-76
2022/12/29 03:03:09;;;;;;;0.10;0.10;;;10.00;99.90;;;;;;5059532;28;20441;-75
2022/12/29 03:06:08;;;;;;;0.30;0.30;;;10.10;99.90;;;;;;5043410;28;20519;-77
2022/12/29 03:08:49;;;;;;;0.20;0.20;;;10.10;99.90;;;;;;5070444;28;20434;-76
2022/12/29 03:17:32;;;;;;;0.10;0.10;;;10.20;99.90;;;;;;5059808;28;20451;-76
2022/12/29 03:20:10;;;;;;;0.10;0.10;;;10.20;99.90;;;;;;5057173;28;20472;-75
2022/12/29 03:22:43;;;;;;;0.40;0.25;;;10.30;99.90;;;;;;5068389;28;20519;-77
2022/12/29 03:25:15;;;;;;;0.20;0.20;;;10.20;99.90;;;;;;5050205;28;20433;-76
2022/12/29 03:27:48;;;;;;;0.13;0.13;;;10.20;99.90;;;;;;5056342;28;20952;-76
2022/12/29 03:30:16;;;;;;;0.30;0.30;;;10.10;99.90;;;;;;5065289;28;20429;-76
2022/12/29 03:32:51;;;;;;;0.40;0.40;;;10.00;99.90;;;;;;5054705;28;20929;-76
2022/12/29 03:35:21;;;;;;;0.10;0.10;;;10.00;99.90;;;;;;5042825;28;20421;-77
2022/12/29 03:38:06;;;;;;;0.90;0.30;;;10.00;99.90;;;;;;5061914;28;20423;-77
2022/12/29 03:40:35;;;;;;;0.20;0.20;;;10.00;99.90;;;;;;5040172;28;20449;-76
2022/12/29 03:43:04;;;;;;;0.20;0.20;;;10.10;99.90;;;;;;5071575;28;20515;-76
2022/12/29 03:45:31;;;;;;;0.20;0.20;;;10.20;99.90;;;;;;5048850;28;20524;-76
2022/12/29 03:47:57;;;;;;;0.40;0.40;;;10.20;99.90;;;;;;5054064;28;20440;-75
2022/12/29 03:50:24;;;;;;;0.30;0.20;;;10.30;99.90;;;;;;5060692;28;20435;-76
2022/12/29 03:52:51;;;;;;;0.30;0.30;;;10.30;99.90;;;;;;5071093;28;20435;-77
2022/12/29 03:55:18;;;;;;;0.10;0.10;;;10.40;99.90;;;;;;5073313;28;20446;-76
2022/12/29 03:57:44;;;;;;;0.30;0.20;;;10.40;99.90;;;;;;5058200;28;20434;-76
2022/12/29 04:00:12;;;;;;;2.50;1.10;;;10.40;99.90;;;;;;5057753;28;20516;-77
2022/12/29 04:02:39;;;;;;;0.20;0.20;;;10.40;99.90;;;;;;5056196;28;20433;-76
2022/12/29 04:05:06;;;;;;;0.20;0.20;;;10.50;99.90;;;;;;5061482;28;20434;-76
2022/12/29 04:07:33;;;;;;;0.20;0.20;;;10.50;99.90;;;;;;5061967;28;20472;-76
2022/12/29 04:10:00;;;;;;;0.63;0.47;;;10.60;99.90;;;;;;5068600;28;20466;-75
2022/12/29 04:12:26;;;;;;;5.35;0.25;;;10.60;99.90;;;;;;5062681;28;20504;-76
2022/12/29 04:14:53;;;;;;;0.20;0.20;;;10.60;99.90;;;;;;5059699;28;20423;-76
2022/12/29 04:17:20;;;;;;;0.30;0.30;;;10.70;99.90;;;;;;5073940;28;20417;-75
2022/12/29 04:19:47;;;;;;;0.20;0.20;;;10.70;99.90;;;;;;5071458;28;20482;-76
2022/12/29 04:22:13;;;;;;;0.25;0.25;;;10.80;99.90;;;;;;5053506;28;20459;-76
2022/12/29 04:24:44;;;;;;;0.40;0.40;;;10.80;99.90;;;;;;5051993;28;20430;-77
2022/12/29 04:27:10;;;;;;;0.20;0.20;;;10.80;99.90;;;;;;5053026;28;20429;-75
2022/12/29 04:29:37;;;;;;;0.20;0.20;;;10.90;99.90;;;;;;5062438;28;20458;-76
2022/12/29 04:32:04;;;;;;;1.75;0.65;;;10.90;99.90;;;;;;5058205;28;20425;-76
2022/12/29 04:34:31;;;;;;;0.30;0.30;;;10.90;99.90;;;;;;5061020;28;20439;-75
2022/12/29 04:37:02;;;;;;;0.20;0.20;;;10.80;99.90;;;;;;5066551;28;20428;-76
2022/12/29 04:39:29;;;;;;;0.90;0.22;;;10.90;99.90;;;;;;5062264;28;20940;-76
2022/12/29 04:41:56;;;;;;;0.30;0.20;;;10.80;99.90;;;;;;5056588;28;20461;-76
2022/12/29 04:44:23;;;;;;;2.00;0.20;;;10.90;99.90;;;;;;5058954;28;20433;-76
2022/12/29 04:46:50;;;;;;;0.25;0.25;;;10.90;99.90;;;;;;5062078;28;20434;-75
2022/12/29 04:49:17;;;;;;;0.20;0.20;;;10.90;99.90;;;;;;5061678;28;20498;-75
2022/12/29 04:51:43;;;;;;;0.30;0.30;;;10.90;99.90;;;;;;5061067;28;20486;-73
2022/12/29 04:54:10;;;;;;;0.10;0.10;;;10.70;99.90;;;;;;5052632;28;20429;-73
2022/12/29 04:56:37;;;;;;;0.10;0.10;;;10.70;99.90;;;;;;5061591;28;21139;-75
2022/12/29 04:59:04;;;;;;;0.50;0.50;;;10.70;99.90;;;;;;5061545;28;20421;-73
2022/12/29 05:01:31;;;;;;;0.20;0.20;;;10.60;99.90;;;;;;5055777;28;20436;-75
2022/12/29 05:03:58;;;;;;;0.17;0.17;;;10.60;99.90;;;;;;5046764;28;20436;-75
2022/12/29 05:06:24;;;;;;;0.20;0.20;;;10.60;99.90;;;;;;5054577;28;20431;-75
2022/12/29 05:08:51;;;;;;;0.20;0.20;;;10.70;99.90;;;;;;5070497;28;20469;-75
2022/12/29 05:11:20;;;;;;;0.20;0.20;;;10.60;99.90;;;;;;5080495;28;20430;-75
2022/12/29 05:13:47;;;;;;;0.38;0.38;;;10.60;99.90;;;;;;5055370;28;20429;-75
2022/12/29 05:16:14;;;;;;;0.20;0.20;;;10.70;99.90;;;;;;5059505;28;20421;-75
2022/12/29 05:18:40;;;;;;;0.20;0.20;;;10.70;99.90;;;;;;5044896;28;20896;-75
2022/12/29 05:21:07;;;;;;;0.22;0.22;;;10.70;99.90;;;;;;5054868;28;20991;-75
2022/12/29 05:23:36;;;;;;;0.20;0.20;;;10.70;99.90;;;;;;5058963;28;20468;-75
2022/12/29 05:26:03;;;;;;;0.10;0.10;;;10.70;99.90;;;;;;5062188;28;20443;-75
2022/12/29 05:28:33;;;;;;;0.17;0.17;;;10.70;99.90;;;;;;5055226;28;20431;-74
2022/12/29 05:30:59;;;;;;;0.30;0.30;;;10.70;99.90;;;;;;5059254;28;20890;-76
2022/12/29 05:33:26;;;;;;;0.15;0.15;;;10.70;99.90;;;;;;5053622;28;20428;-75
2022/12/29 05:35:55;;;;;;;0.20;0.20;;;10.70;99.90;;;;;;5065626;28;20431;-76
2022/12/29 05:38:23;;;;;;;0.20;0.20;;;10.80;99.90;;;;;;5058969;28;20431;-75
2022/12/29 05:40:52;;;;;;;0.10;0.10;;;10.80;99.90;;;;;;5061365;28;20428;-75
2022/12/29 05:43:19;;;;;;;0.47;0.47;;;10.80;99.90;;;;;;5066564;28;20952;-74
2022/12/29 05:45:49;;;;;;;0.80;0.35;;;10.80;99.90;;;;;;5062669;28;20429;-75
2022/12/29 05:48:16;;;;;;;0.20;0.20;;;10.80;99.90;;;;;;5070899;28;20451;-75
2022/12/29 05:50:46;;;;;;;0.20;0.20;;;10.90;99.90;;;;;;5060645;28;20428;-74
2022/12/29 05:53:17;;;;;;;0.35;0.35;;;10.90;99.90;;;;;;5061492;28;20431;-74
2022/12/29 05:55:46;;;;;;;0.22;0.22;;;10.90;99.90;;;;;;5055202;28;20522;-75
2022/12/29 05:58:16;;;;;;;0.15;0.15;;;11.00;99.90;;;;;;5058451;28;20476;-74
2022/12/29 06:00:43;;;;;;;0.50;0.30;;;11.10;99.90;;;;;;5056020;28;20468;-75
2022/12/29 06:03:11;;;;;;;0.20;0.20;;;11.10;99.90;;;;;;5059588;28;20431;-76
2022/12/29 06:05:38;;;;;;;0.10;0.10;;;11.10;99.90;;;;;;5058793;28;20447;-75
2022/12/29 06:08:07;;;;;;;0.40;0.40;;;11.10;99.90;;;;;;5059020;28;20431;-75
2022/12/29 06:10:36;;;;;;;7.40;0.40;;;11.10;99.90;;;;;;5053882;28;20428;-76
2022/12/29 06:13:05;;;;;;;0.30;0.30;;;11.10;99.90;;;;;;5042876;28;20455;-75
2022/12/29 06:15:32;;;;;;;0.47;0.47;;;11.10;99.90;;;;;;5066279;28;20453;-74
2022/12/29 06:18:00;;;;;;;0.20;0.20;;;11.10;99.90;;;;;;5058755;28;20439;-75
2022/12/29 06:20:29;;;;;;;0.30;0.30;;;11.10;99.90;;;;;;5053521;28;20427;-75
2022/12/29 06:22:55;;;;;;;0.40;0.40;;;11.10;99.90;;;;;;5055042;28;21127;-76
2022/12/29 06:25:22;;;;;;;0.20;0.20;;;11.10;99.90;;;;;;5061781;28;20444;-75
2022/12/29 06:27:51;;;;;;;0.10;0.10;;;11.10;99.90;;;;;;5043165;28;20432;-74
2022/12/29 06:30:18;;;;;;;0.35;0.28;;;11.10;99.90;;;;;;5058701;28;20427;-77
2022/12/29 06:32:48;;;;;;;0.10;0.10;;;11.10;99.90;;;;;;5056656;28;20908;-74
2022/12/29 06:35:15;;;;;;;0.28;0.28;;;11.10;99.90;;;;;;5055581;28;20436;-74
2022/12/29 06:37:43;;;;;;;0.20;0.20;;;11.00;99.90;;;;;;5055519;28;20911;-74
2022/12/29 06:40:11;;;;;;;0.32;0.32;;;11.00;99.90;;;;;;5058692;28;20443;-73
2022/12/29 06:42:38;;;;;;;0.70;0.20;;;11.00;99.90;;;;;;5043652;28;20421;-73
2022/12/29 06:45:07;;;;;;;0.50;0.20;;;10.90;99.90;;;;;;5055702;28;20435;-74
2022/12/29 06:47:35;;;;;;;0.50;0.50;;;10.90;99.90;;;;;;5056149;28;20920;-75
2022/12/29 06:50:02;;;;;;;0.20;0.20;;;11.00;99.90;;;;;;5056111;28;20802;-75
2022/12/29 06:52:31;;;;;;;0.20;0.20;;;10.90;99.90;;;;;;5055803;28;20433;-74
2022/12/29 06:54:58;;;;;;;0.10;0.10;;;10.90;99.90;;;;;;5052088;28;20423;-74
2022/12/29 06:57:26;;;;;;;0.50;0.50;;;10.90;99.90;;;;;;5055030;28;20483;-74
2022/12/29 06:59:55;;;;;;;0.20;0.20;;;10.90;99.90;;;;;;5050499;28;20514;-74
2022/12/29 07:02:24;;;;;;;0.30;0.30;;;10.80;99.90;;;;;;5055489;28;20483;-74
2022/12/29 07:04:52;;;;;;;0.20;0.20;;;10.80;99.90;;;;;;5060958;28;20500;-74
2022/12/29 07:07:20;;;;;;;0.13;0.13;;;10.80;99.90;;;;;;5057522;28;20472;-74
2022/12/29 07:09:47;;;;;;;0.10;0.10;;;10.80;99.90;;;;;;5056651;28;20501;-74
2022/12/29 07:12:14;;;;;;;0.80;0.37;;;10.90;99.90;;;;;;5063575;28;20486;-74
2022/12/29 07:14:40;;;;;;;0.20;0.20;;;10.90;99.90;;;;;;5063752;28;20512;-74
2022/12/29 07:17:09;;;;;;;0.15;0.15;;;11.00;99.90;;;;;;5054656;28;20531;-74
2022/12/29 07:19:36;;;;;;;2.10;0.40;;;11.00;99.90;;;;;;5059695;28;20990;-74
2022/12/29 07:22:03;;;;;;;0.70;0.50;;;11.00;99.90;;;;;;5058919;28;20788;-73
2022/12/29 07:24:29;;;;;;;0.20;0.20;;;11.00;99.90;;;;;;5056406;28;20425;-73
2022/12/29 07:26:56;;;;;;;0.17;0.17;;;11.00;99.90;;;;;;5052009;28;20468;-74
2022/12/29 07:29:26;;;;;;;0.30;0.30;;;11.10;99.90;;;;;;5072068;28;20431;-74
2022/12/29 07:31:53;;;;;;;0.20;0.20;;;11.10;99.90;;;;;;5063788;28;20468;-74
2022/12/29 07:34:20;;;;;;;1.10;0.60;;;11.10;99.90;;;;;;5052866;28;20466;-74
2022/12/29 07:36:47;;;;;;;0.35;0.35;;;11.10;99.90;;;;;;5055255;28;20429;-74
2022/12/29 07:39:13;;;;;;;0.30;0.30;;;11.10;99.90;;;;;;5064519;28;20430;-74
2022/12/29 07:41:40;;;;;;;0.10;0.10;;;11.10;99.90;;;;;;5060577;28;20789;-73
2022/12/29 07:44:08;;;;;;;0.47;0.38;;;11.00;99.90;;;;;;5051330;28;20433;-74
2022/12/29 07:46:35;;;;;;;0.27;0.27;;;11.10;99.90;;;;;;5043500;28;20454;-74
2022/12/29 07:49:22;;;;;;;0.20;0.20;;;11.00;99.90;;;;;;5056466;28;20445;-74
2022/12/29 07:51:49;;;;;;;0.20;0.20;;;11.00;99.90;;;;;;5067024;28;20524;-74
2022/12/29 07:54:18;;;;;;;1.60;1.05;;;10.90;99.90;;;;;;5060912;28;20518;-74
2022/12/29 07:56:45;;;;;;;0.10;0.10;;;10.90;99.90;;;;;;5065815;28;20494;-74
2022/12/29 07:59:14;;;;;;;0.30;0.30;;;11.00;99.90;;;;;;5066690;28;20509;-73
2022/12/29 08:01:41;;;;;;;4.00;0.63;;;11.00;99.90;;;;;;5060953;28;20432;-73
2022/12/29 08:04:10;;;;;;;0.10;0.10;;;11.00;99.90;;;;;;5069354;28;20431;-74
2022/12/29 08:06:37;;;;;;;0.13;0.13;;;11.10;99.90;;;;;;5047356;28;20544;-74
2022/12/29 08:09:08;;;;;;;0.40;0.40;;;11.20;99.90;;;;;;5052529;28;20915;-74
2022/12/29 08:11:48;;;;;;;0.30;0.30;;;11.10;99.90;;;;;;5063581;28;20453;-74
2022/12/29 08:14:14;;;;;;;0.10;0.10;;;11.10;99.90;;;;;;5060432;28;20511;-74
2022/12/29 08:16:41;;;;;;;1.00;0.50;;;11.10;99.90;;;;;;5064308;28;20461;-74
2022/12/29 08:19:10;;;;;;;0.25;0.25;;;11.00;99.90;;;;;;5055488;28;20814;-74
2022/12/29 08:21:38;;;;;;;0.15;0.15;;;11.00;99.90;;;;;;5058660;28;20433;-74
2022/12/29 08:24:06;;;;;;;0.47;0.45;;;11.00;99.90;;;;;;5057154;28;20428;-73
2022/12/29 08:26:35;;;;;;;0.30;0.30;;;11.00;99.90;;;;;;5057267;28;20493;-74
2022/12/29 08:29:01;;;;;;;0.20;0.20;;;11.10;99.90;;;;;;5067969;28;20993;-75
2022/12/29 08:31:28;;;;;;;0.75;0.57;;;11.20;99.90;;;;;;5062303;28;20434;-74
2022/12/29 08:33:55;;;;;;;0.40;0.40;;;11.30;99.90;;;;;;5064531;28;20452;-74
2022/12/29 08:36:22;;;;;;;0.20;0.20;;;11.30;99.90;;;;;;5068217;28;20431;-74
2022/12/29 08:38:49;;;;;;;0.40;0.40;;;11.30;99.90;;;;;;5056409;28;20506;-74
2022/12/29 08:41:16;;;;;;;0.30;0.30;;;11.20;99.90;;;;;;5059423;28;20433;-75
2022/12/29 08:43:46;;;;;;;0.20;0.20;;;11.20;99.90;;;;;;5063082;28;21036;-70
2022/12/29 08:46:14;;;;;;;0.20;0.20;;;11.10;99.90;;;;;;5071035;28;20526;-71
2022/12/29 08:48:41;;;;;;;0.38;0.38;;;11.10;99.90;;;;;;5060211;28;20825;-74
2022/12/29 08:51:08;;;;;;;0.30;0.30;;;11.20;99.90;;;;;;5063428;28;20430;-73
2022/12/29 08:53:35;;;;;;;0.10;0.10;;;11.20;99.90;;;;;;5058438;28;20504;-73
2022/12/29 08:56:05;;;;;;;0.20;0.20;;;11.30;99.90;;;;;;5055164;28;20427;-73
2022/12/29 08:58:32;;;;;;;0.35;0.30;;;11.30;99.90;;;;;;5061134;28;20430;-73
2022/12/29 09:00:59;;;;;;;0.20;0.20;;;11.40;99.90;;;;;;5063905;28;20431;-74
2022/12/29 09:03:26;;;;;;;0.50;0.40;;;11.40;99.90;;;;;;5051054;28;20435;-73
2022/12/29 09:06:14;;;;;;;1.83;0.45;;;11.40;99.90;;;;;;5056894;28;20498;-73
2022/12/29 09:08:41;;;;;;;0.20;0.20;;;11.40;99.90;;;;;;5064526;28;20425;-73
2022/12/29 09:11:18;;;;;;;0.60;0.40;;;11.50;99.90;;;;;;5066263;28;20431;-74
2022/12/29 09:13:45;;;;;;;0.30;0.30;;;11.50;99.90;;;;;;5058330;28;20434;-74
2022/12/29 09:16:12;;;;;;;0.57;0.30;;;11.50;99.90;;;;;;5058989;28;20474;-73
2022/12/29 09:18:42;;;;;;;0.30;0.30;;;11.50;99.90;;;;;;5045697;28;20771;-73
2022/12/29 09:21:10;;;;;;;0.30;0.25;;;11.40;99.90;;;;;;5070453;28;20428;-73
2022/12/29 09:23:37;;;;;;;0.30;0.30;;;11.40;99.90;;;;;;5046828;28;20420;-70
2022/12/29 09:26:04;;;;;;;0.30;0.30;;;11.30;99.90;;;;;;5053586;28;20962;-71
2022/12/29 09:28:31;;;;;;;0.85;0.50;;;11.20;99.90;;;;;;5059810;28;20423;-74
2022/12/29 09:30:59;;;;;;;0.30;0.30;;;11.20;99.90;;;;;;5054734;28;20452;-73
2022/12/29 09:33:26;;;;;;;0.28;0.28;;;11.10;99.90;;;;;;5053273;28;20438;-73
2022/12/29 09:35:57;;;;;;;0.30;0.30;;;11.10;99.90;;;;;;5058817;28;20429;-73
2022/12/29 09:38:26;;;;;;;0.30;0.30;;;10.90;99.90;;;;;;5057272;28;20470;-73
2022/12/29 09:41:08;;;;;;;0.10;0.10;;;10.90;99.90;;;;;;5067336;28;20436;-73
2022/12/29 09:43:38;;;;;;;0.33;0.33;;;10.90;99.90;;;;;;5055127;28;20438;-73
2022/12/29 09:46:22;;;;;;;7.20;0.50;;;10.90;99.90;;;;;;5042272;28;20429;-72
2022/12/29 09:49:00;;;;;;;0.35;0.35;;;10.90;99.90;;;;;;5063207;28;20493;-73
2022/12/29 09:51:27;;;;;;;0.20;0.20;;;10.50;99.90;;;;;;5053440;28;21297;-72
2022/12/29 09:54:19;;;;;;;2.10;0.40;;;10.00;99.90;;;;;;5060771;28;20425;-73
2022/12/29 09:56:47;;;;;;;0.20;0.10;;;9.80;99.90;;;;;;5045064;28;20438;-72
2022/12/29 09:59:53;;;;;;;1.90;0.30;;;9.60;99.90;;;;;;5062180;28;20441;-72
2022/12/29 10:02:40;;;;;;;0.20;0.20;;;9.50;99.90;;;;;;5060192;28;20443;-74
2022/12/29 10:05:15;;;;;;;0.60;0.30;;;9.40;99.90;;;;;;5054352;28;20424;-73
2022/12/29 10:08:17;;;;;;;0.40;0.10;;;9.30;99.90;;;;;;5058473;28;20778;-74
2022/12/29 10:11:01;;;;;;;0.20;0.20;;;9.20;99.90;;;;;;5045770;28;20927;-74
2022/12/29 10:13:34;;;;;;;0.05;0.05;;;9.10;99.90;;;;;;5061712;28;20528;-76
2022/12/29 10:16:04;;;;;;;0.10;0.10;;;9.10;99.90;;;;;;5050301;28;20429;-74
2022/12/29 10:19:04;;;;;;;0.20;0.20;;;9.10;99.90;;;;;;5060884;28;20431;-74
2022/12/29 10:21:43;;;;;;;0.15;0.15;;;9.00;99.90;;;;;;5062463;28;20432;-74
2022/12/29 10:24:12;;;;;;;0.07;0.07;;;9.00;99.90;;;;;;5060903;28;20508;-74
2022/12/29 10:26:43;;;;;;;1.10;0.30;;;9.00;99.90;;;;;;5067130;28;20440;-74
2022/12/29 10:29:18;;;;;;;0.15;0.15;;;9.10;99.90;;;;;;5067771;28;20426;-76
2022/12/29 10:31:56;;;;;;;0.10;0.10;;;9.10;99.90;;;;;;5063016;28;20942;-74
2022/12/29 10:34:36;;;;;;;0.45;0.20;;;9.10;99.90;;;;;;5059193;28;20917;-73
2022/12/29 10:37:32;;;;;;;0.10;0.10;;;9.10;99.90;;;;;;5040213;28;20430;-72
2022/12/29 10:40:11;;;;;;;0.08;0.08;;;9.20;99.90;;;;;;5055909;28;20432;-73
2022/12/29 10:42:44;;;;;;;0.28;0.28;;;9.20;99.90;;;;;;5058195;28;20428;-73
2022/12/29 10:45:16;;;;;;;0.20;0.20;;;9.20;99.90;;;;;;5064702;28;20468;-74
2022/12/29 10:47:57;;;;;;;0.10;0.10;;;9.30;99.90;;;;;;5040226;28;20435;-73
2022/12/29 10:50:25;;;;;;;0.60;0.20;;;9.30;99.90;;;;;;5044658;28;20422;-73
2022/12/29 10:52:54;;;;;;;0.30;0.30;;;9.50;99.90;;;;;;5061913;28;20429;-73
2022/12/29 10:55:28;;;;;;;0.10;0.10;;;9.70;99.90;;;;;;5044238;28;20831;-72
2022/12/29 10:57:59;;;;;;;0.20;0.20;;;9.90;99.90;;;;;;5051256;28;20755;-74
2022/12/29 11:00:26;;;;;;;0.10;0.10;;;10.10;99.90;;;;;;5051492;28;20523;-75
2022/12/29 11:03:33;;;;;;;0.55;0.55;;;10.20;99.90;;;;;;5054558;28;20525;-73
2022/12/29 11:06:08;;;;;;;0.20;0.20;;;10.40;99.90;;;;;;5060963;28;20469;-74
2022/12/29 11:08:45;;;;;;;0.70;0.70;;;10.60;99.90;;;;;;5060559;28;20501;-73
2022/12/29 11:11:21;;;;;;;0.03;0.03;;;10.70;99.90;;;;;;5034555;28;20433;-72
2022/12/29 11:13:50;;;;;;;3.45;0.40;;;10.70;99.90;;;;;;5061831;28;21785;-73
2022/12/29 11:16:31;;;;;;;1.10;0.30;;;10.80;99.90;;;;;;5062007;28;20487;-73
2022/12/29 11:18:58;;;;;;;0.20;0.20;;;11.00;99.90;;;;;;5050577;28;20869;-72
2022/12/29 11:21:39;;;;;;;0.50;0.50;;;11.20;99.90;;;;;;5058440;28;20432;-72
2022/12/29 11:24:20;;;;;;;0.20;0.20;;;11.50;99.90;;;;;;5059797;28;20436;-73
2022/12/29 11:26:50;;;;;;;0.17;0.17;;;11.60;99.90;;;;;;5048716;28;23020;-73
2022/12/29 11:29:20;;;;;;;0.30;0.30;;;11.70;99.90;;;;;;5045408;28;20444;-73
2022/12/29 11:31:53;;;;;;;0.10;0.10;;;11.60;99.90;;;;;;5040574;28;20985;-73
2022/12/29 11:34:26;;;;;;;0.20;0.20;;;11.80;99.90;;;;;;5057751;28;20440;-73
2022/12/29 11:36:59;;;;;;;0.20;0.20;;;11.80;99.90;;;;;;5052241;28;20429;-73
2022/12/29 11:39:49;;;;;;;0.20;0.20;;;11.90;99.90;;;;;;5050851;28;20429;-72
2022/12/29 11:42:20;;;;;;;0.10;0.10;;;11.90;99.90;;;;;;5038224;28;20490;-73
2022/12/29 11:44:49;;;;;;;0.15;0.15;;;11.90;99.90;;;;;;5045734;28;20433;-73
2022/12/29 11:47:30;;;;;;;0.20;0.20;;;12.10;99.90;;;;;;5055370;28;20619;-73
2022/12/29 11:50:04;;;;;;;0.20;0.20;;;12.20;99.90;;;;;;5059590;28;20479;-74
2022/12/29 11:52:37;;;;;;;0.25;0.25;;;12.20;99.90;;;;;;5063089;28;20427;-73
2022/12/29 11:55:07;;;;;;;0.20;0.20;;;12.10;99.90;;;;;;5054754;28;20455;-74
2022/12/29 11:57:35;;;;;;;0.10;0.10;;;12.00;99.90;;;;;;5053680;28;20447;-74
2022/12/29 12:00:15;;;;;;;0.10;0.10;;;11.90;99.90;;;;;;5060747;28;20438;-74
2022/12/29 12:02:49;;;;;;;0.10;0.10;;;11.80;99.90;;;;;;5056808;28;20821;-74
2022/12/29 12:05:33;;;;;;;0.20;0.20;;;11.80;99.90;;;;;;5062009;28;20436;-74
2022/12/29 12:08:18;;;;;;;0.20;0.20;;;11.80;99.90;;;;;;5056444;28;20423;-74
2022/12/29 12:10:58;;;;;;;0.10;0.10;;;11.80;99.90;;;;;;5058568;28;20435;-74
2022/12/29 12:14:03;;;;;;;0.17;0.17;;;11.70;99.90;;;;;;5059336;28;20437;-74
2022/12/29 12:16:39;;;;;;;0.20;0.20;;;11.70;99.90;;;;;;5002958;28;20444;-74
2022/12/29 12:19:23;;;;;;;0.20;0.20;;;11.80;99.90;;;;;;5001174;28;21201;-73
2022/12/29 12:21:58;;;;;;;0.20;0.20;;;12.10;99.90;;;;;;4997821;28;20577;-73
2022/12/29 12:24:39;;;;;;;0.20;0.20;;;12.50;99.90;;;;;;5000917;28;20505;-73
2022/12/29 12:27:18;;;;;;;0.10;0.10;;;12.60;99.90;;;;;;4993525;28;20442;-73
2022/12/29 12:29:57;;;;;;;0.20;0.20;;;12.70;99.90;;;;;;4993842;28;20482;-74
2022/12/29 12:32:37;;;;;;;0.20;0.20;;;12.60;99.90;;;;;;4990646;28;20795;-74
2022/12/29 12:35:04;;;;;;;0.10;0.10;;;12.50;99.90;;;;;;4997928;28;20454;-73
2022/12/29 12:37:49;;;;;;;0.20;0.20;;;12.40;99.90;;;;;;5001569;28;20500;-73
2022/12/29 12:40:38;;;;;;;0.10;0.10;;;12.40;99.90;;;;;;4980383;28;21660;-73
2022/12/29 12:43:26;;;;;;;0.30;0.30;;;12.60;99.90;;;;;;4997608;28;20436;-74
2022/12/29 12:46:19;;;;;;;1.60;0.30;;;13.10;99.90;;;;;;4992217;28;20437;-73
2022/12/29 12:49:42;;;;;;;0.20;0.20;;;13.60;99.90;;;;;;4998333;28;20981;-73
2022/12/29 12:52:33;;;;;;;0.20;0.20;;;13.40;99.90;;;;;;4928508;29;20447;-73
2022/12/29 12:55:42;;;;;;;0.90;0.40;;;13.20;99.90;;;;;;4958217;28;20446;-74
2022/12/29 12:58:53;;;;;;;0.30;0.30;;;12.90;99.90;;;;;;4962602;28;20892;-73
2022/12/29 13:01:29;;;;;;;0.40;0.20;;;13.20;99.90;;;;;;4962902;28;20564;-73
2022/12/29 13:04:12;;;;;;;0.20;0.20;;;13.40;99.90;;;;;;4959369;28;20438;-73
2022/12/29 13:07:16;;;;;;;0.20;0.20;;;13.70;99.90;;;;;;4957557;28;20528;-73
2022/12/29 13:09:57;;;;;;;0.22;0.22;;;13.40;99.90;;;;;;4967859;28;20488;-73
2022/12/29 13:12:41;;;;;;;0.10;0.10;;;13.40;99.90;;;;;;4962605;28;20490;-72
2022/12/29 13:15:21;;;;;;;0.10;0.10;;;13.30;99.90;;;;;;4949176;28;20468;-72
2022/12/29 13:18:06;;;;;;;0.50;0.50;;;13.10;99.90;;;;;;4962437;28;20437;-73
2022/12/29 13:20:32;;;;;;;0.20;0.20;;;13.10;99.90;;;;;;4967043;28;20576;-73
2022/12/29 13:23:25;;;;;;;0.30;0.30;;;12.70;99.90;;;;;;5008748;28;20463;-74
2022/12/29 13:25:55;;;;;;;0.30;0.30;;;12.40;99.90;;;;;;5062223;28;20530;-74
2022/12/29 13:28:32;;;;;;;0.20;0.20;;;12.20;99.90;;;;;;5054776;28;20437;-74
2022/12/29 13:31:33;;;;;;;0.20;0.20;;;12.10;99.90;;;;;;5032694;28;20463;-74
2022/12/29 13:34:52;;;;;;;0.20;0.20;;;12.00;99.90;;;;;;5049851;28;20436;-75
2022/12/29 13:37:25;;;;;;;0.20;0.20;;;12.00;99.90;;;;;;5017756;28;20795;-74
2022/12/29 13:39:57;;;;;;;0.20;0.20;;;11.90;99.90;;;;;;5048239;28;20520;-74
2022/12/29 13:42:25;;;;;;;0.28;0.28;;;11.80;99.90;;;;;;5054127;28;20433;-74
2022/12/29 13:45:06;;;;;;;0.55;0.47;;;11.80;99.90;;;;;;5051222;28;21031;-74
2022/12/29 13:47:41;;;;;;;0.10;0.10;;;11.70;99.90;;;;;;5038117;28;20436;-74
2022/12/29 13:50:18;;;;;;;0.20;0.20;;;11.70;99.90;;;;;;5044260;28;20435;-74